SIN weather

Singapore Changi Airport
Singapore, South East, Singapore

Public forecast

Using degrees Celsius for public forecast. Weather courtesy of forecast.io.

Current aviation weather report (METAR) for Singapore Changi Airport

Retrieved 2020/01/19 09:30 UTC (13 minutes ago):

WSSS 190930Z 05012KT 9999 FEW018 BKN300 31/23 Q1009 NOSIG

Aviation forecast (TAF) for Singapore Changi Airport

Retrieved 2020/01/19 06:11 UTC (4 hours ago):

TAF WSSS 190500Z 1906/2012 03009KT 9999 SCT015 BKN020 TEMPO 1906/1908 4000 SHRA SCT012CB BKN015